Time;durP1;ratioP1;P1;durP2;ratioP2;P2;SDS_P1;SDS_P2;PMS_P1;PMS_P2;Temp;Humidity;BMP_temperature;BMP_pressure;BME280_temperature;BME280_humidity;BME280_pressure;Samples;Min_cycle;Max_cycle;Signal;HPM_P1;HPM_P2
2021/06/28 00:02:01;;;;;;;4.63;1.13;;;;;;;;;;4798652;28;20669;-73
2021/06/28 00:04:24;;;;;;;5.20;1.27;;;13.60;45.40;;;;;;4801821;28;20203;-73
2021/06/28 00:06:46;;;;;;;3.93;0.90;;;;;;;;;;4802024;28;20239;-73
2021/06/28 00:09:10;;;;;;;4.23;1.10;;;14.30;40.10;;;;;;4801634;28;20224;-73
2021/06/28 00:11:33;;;;;;;3.13;0.83;;;;;;;;;;4800251;28;20220;-80
2021/06/28 00:13:56;;;;;;;4.00;1.00;;;;;;;;;;4802017;28;20213;-81
2021/06/28 00:16:18;;;;;;;9.13;2.00;;;14.30;34.20;;;;;;4799887;28;20196;-82
2021/06/28 00:18:41;;;;;;;3.83;0.90;;;;;;;;;;4801443;28;20200;-83
2021/06/28 00:21:05;;;;;;;3.80;1.00;;;13.90;1.00;;;;;;4801919;28;20669;-82
2021/06/28 00:23:28;;;;;;;4.23;1.03;;;13.90;32.60;;;;;;4801655;28;20282;-82
2021/06/28 00:25:52;;;;;;;2.43;0.70;;;13.70;6.50;;;;;;4801681;28;20656;-77
2021/06/28 00:28:15;;;;;;;4.80;1.27;;;13.90;34.20;;;;;;4801560;28;20208;-83
2021/06/28 00:30:41;;;;;;;3.30;0.83;;;13.70;4.30;;;;;;4800990;28;20267;-73
2021/06/28 00:33:04;;;;;;;4.20;1.07;;;13.60;17.30;;;;;;4801196;28;20610;-77
2021/06/28 00:35:27;;;;;;;5.90;1.50;;;;;;;;;;4800946;28;20219;-78
2021/06/28 00:37:50;;;;;;;3.47;0.90;;;13.50;1.30;;;;;;4801409;28;20536;-82
2021/06/28 00:40:15;;;;;;;3.87;1.00;;;13.50;1.00;;;;;;4801035;28;20196;-83
2021/06/28 00:42:39;;;;;;;4.27;1.03;;;13.40;6.70;;;;;;4783467;28;20603;-77
2021/06/28 00:45:01;;;;;;;5.13;1.23;;;13.70;50.60;;;;;;4800908;28;20197;-82
2021/06/28 00:47:24;;;;;;;7.37;1.70;;;13.80;59.20;;;;;;4801100;28;20192;-80
2021/06/28 00:49:47;;;;;;;4.10;1.00;;;;;;;;;;4799665;28;20690;-81
2021/06/28 00:52:09;;;;;;;2.73;0.70;;;;;;;;;;4801001;28;20251;-82
2021/06/28 00:54:32;;;;;;;3.63;0.97;;;13.50;53.00;;;;;;4800795;28;20271;-78
2021/06/28 00:56:55;;;;;;;5.20;1.20;;;13.50;46.80;;;;;;4800986;28;20202;-82
2021/06/28 00:59:19;;;;;;;6.63;1.53;;;13.70;70.50;;;;;;4801335;28;20255;-78
2021/06/28 01:01:41;;;;;;;2.67;0.70;;;13.20;65.90;;;;;;4798656;28;20266;-82
2021/06/28 01:04:04;;;;;;;4.57;1.07;;;;;;;;;;4800471;28;20231;-80
2021/06/28 01:06:27;;;;;;;12.57;2.70;;;;;;;;;;4798183;28;20208;-74
2021/06/28 01:08:50;;;;;;;4.07;1.00;;;;;;;;;;4800154;28;20188;-75
2021/06/28 01:11:13;;;;;;;2.67;0.83;;;;;;;;;;4799878;28;20546;-73
2021/06/28 01:13:39;;;;;;;3.27;0.83;;;13.30;53.70;;;;;;4800384;28;20255;-74
2021/06/28 01:16:04;;;;;;;4.17;1.10;;;13.60;89.90;;;;;;4801039;28;20192;-72
2021/06/28 01:18:27;;;;;;;6.43;1.70;;;12.80;46.70;;;;;;4799823;28;20196;-74
2021/06/28 01:20:50;;;;;;;2.50;0.70;;;13.20;36.10;;;;;;4800181;28;20259;-73
2021/06/28 01:23:19;;;;;;;2.47;0.70;;;12.80;39.30;;;;;;4799866;28;20242;-75
2021/06/28 01:25:42;;;;;;;2.97;0.80;;;;;;;;;;4800472;28;20234;-72
2021/06/28 01:28:04;;;;;;;3.43;1.00;;;;;;;;;;4800228;28;20199;-73
2021/06/28 01:30:29;;;;;;;5.03;1.30;;;13.10;56.50;;;;;;4798891;28;20204;-74
2021/06/28 01:32:52;;;;;;;3.23;0.97;;;;;;;;;;4800531;28;20286;-74
2021/06/28 01:35:16;;;;;;;4.60;1.23;;;12.90;61.40;;;;;;4799662;28;20204;-73
2021/06/28 01:37:39;;;;;;;2.67;0.80;;;;;;;;;;4800362;28;20184;-72
2021/06/28 01:40:07;;;;;;;4.70;1.10;;;12.80;36.30;;;;;;4800447;28;20232;-73
2021/06/28 01:42:32;;;;;;;11.60;2.47;;;12.80;47.00;;;;;;4799408;28;20243;-77
2021/06/28 01:44:55;;;;;;;3.63;0.87;;;;;;;;;;4800306;28;20642;-74
2021/06/28 01:47:18;;;;;;;7.63;1.90;;;12.80;55.80;;;;;;4799141;28;20650;-73
2021/06/28 01:49:40;;;;;;;4.03;1.00;;;12.90;95.00;;;;;;4799941;28;20211;-73
2021/06/28 01:52:03;;;;;;;4.37;1.17;;;12.60;93.80;;;;;;4799783;28;20212;-73
2021/06/28 01:54:28;;;;;;;6.83;1.70;;;12.40;57.20;;;;;;4800264;28;20195;-73
2021/06/28 01:56:52;;;;;;;2.87;0.90;;;12.70;57.50;;;;;;4799889;28;20235;-74
2021/06/28 01:59:14;;;;;;;4.53;1.03;;;14.60;68.90;;;;;;4799985;28;20184;-75
2021/06/28 02:01:37;;;;;;;3.63;0.90;;;;;;;;;;4790134;28;20232;-73
2021/06/28 02:04:00;;;;;;;3.10;0.80;;;;;;;;;;4781474;29;20236;-73
2021/06/28 02:06:22;;;;;;;6.97;1.50;;;;;;;;;;4781304;29;20240;-75
2021/06/28 02:08:45;;;;;;;3.83;1.03;;;12.70;96.80;;;;;;4781505;29;20236;-73
2021/06/28 02:11:08;;;;;;;2.93;0.83;;;;;;;;;;4784703;28;20191;-73
2021/06/28 02:13:33;;;;;;;6.13;1.50;;;12.40;93.10;;;;;;4800063;28;20328;-74
2021/06/28 02:15:56;;;;;;;4.53;1.20;;;12.30;96.20;;;;;;4800061;28;20600;-75
2021/06/28 02:18:18;;;;;;;10.77;2.53;;;12.80;99.90;;;;;;4799679;28;20188;-78
2021/06/28 02:20:41;;;;;;;2.30;0.73;;;12.90;99.90;;;;;;4799834;28;20192;-75
2021/06/28 02:23:24;;;;;;;4.13;1.10;;;12.50;72.20;;;;;;4799626;28;20240;-76
2021/06/28 02:25:46;;;;;;;3.43;0.90;;;;;;;;;;4800760;28;20200;-74
2021/06/28 02:28:09;;;;;;;3.27;1.00;;;12.30;99.90;;;;;;4803573;28;20188;-74
2021/06/28 02:30:33;;;;;;;1.73;0.50;;;12.40;68.90;;;;;;4802613;28;20208;-77
2021/06/28 02:32:55;;;;;;;2.87;0.77;;;12.70;99.90;;;;;;4802074;28;20619;-82
2021/06/28 02:35:18;;;;;;;6.30;1.57;;;;;;;;;;4803456;28;20212;-80
2021/06/28 02:37:42;;;;;;;3.97;1.10;;;12.40;63.70;;;;;;4803641;28;20184;-82
2021/06/28 02:40:06;;;;;;;3.63;1.00;;;12.30;96.60;;;;;;4803617;28;20203;-80
2021/06/28 02:42:29;;;;;;;7.47;1.70;;;12.50;71.30;;;;;;4803216;28;20592;-83
2021/06/28 02:44:51;;;;;;;2.53;0.70;;;;;;;;;;4803711;28;20759;-78
2021/06/28 02:47:15;;;;;;;3.87;0.97;;;12.20;65.80;;;;;;4803329;28;20243;-82
2021/06/28 02:49:38;;;;;;;4.30;1.10;;;12.30;72.00;;;;;;4802954;28;20246;-81
2021/06/28 02:52:00;;;;;;;3.63;1.03;;;;;;;;;;4803484;28;20216;-83
2021/06/28 02:54:23;;;;;;;9.90;2.47;;;12.50;99.90;;;;;;4802173;28;20243;-76
2021/06/28 02:56:46;;;;;;;2.97;0.90;;;12.10;87.30;;;;;;4802752;28;20612;-80
2021/06/28 02:59:11;;;;;;;3.43;1.00;;;12.20;99.90;;;;;;4802513;28;20735;-80
2021/06/28 03:01:33;;;;;;;2.43;0.73;;;12.10;90.80;;;;;;4798352;28;20227;-81
2021/06/28 03:03:58;;;;;;;3.77;1.00;;;12.30;99.90;;;;;;4803256;28;20231;-83
2021/06/28 03:06:21;;;;;;;4.23;1.10;;;12.30;89.80;;;;;;4802761;28;20235;-80
2021/06/28 03:08:44;;;;;;;2.43;0.70;;;;;;;;;;4803178;28;20568;-81
2021/06/28 03:11:07;;;;;;;3.30;0.90;;;;;;;;;;4801355;28;20587;-82
2021/06/28 03:13:30;;;;;;;4.07;1.20;;;12.40;94.50;;;;;;4802747;28;20228;-83
2021/06/28 03:15:52;;;;;;;2.30;0.73;;;;;;;;;;4802277;28;20212;-80
2021/06/28 03:18:15;;;;;;;4.80;1.20;;;12.40;99.90;;;;;;4801804;28;20188;-82
2021/06/28 03:20:39;;;;;;;3.67;1.00;;;12.50;99.90;;;;;;4800137;28;20196;-77
2021/06/28 03:23:01;;;;;;;3.33;0.93;;;;;;;;;;4802827;28;20188;-82
2021/06/28 03:25:25;;;;;;;5.20;1.40;;;12.60;99.90;;;;;;4802366;28;20603;-80
2021/06/28 03:27:47;;;;;;;2.30;0.80;;;12.50;99.90;;;;;;4801088;28;20255;-78
2021/06/28 03:30:13;;;;;;;3.60;1.03;;;12.70;99.90;;;;;;4802804;28;20196;-80
2021/06/28 03:32:35;;;;;;;3.00;0.90;;;13.00;99.90;;;;;;4802513;28;20217;-73
2021/06/28 03:34:58;;;;;;;3.53;0.97;;;12.80;99.90;;;;;;4801890;28;20267;-75
2021/06/28 03:37:22;;;;;;;6.77;1.73;;;12.90;99.90;;;;;;4800382;28;20211;-73
2021/06/28 03:39:45;;;;;;;3.60;1.10;;;;;;;;;;4802387;28;20196;-73
2021/06/28 03:42:07;;;;;;;3.13;0.90;;;13.30;99.90;;;;;;4801598;28;20236;-73
2021/06/28 03:44:30;;;;;;;5.63;1.57;;;;;;;;;;4801900;28;20184;-73
2021/06/28 03:46:53;;;;;;;2.67;0.90;;;;;;;;;;4802230;28;20188;-73
2021/06/28 03:49:15;;;;;;;2.67;0.80;;;13.40;99.90;;;;;;4801652;28;20208;-73
2021/06/28 03:51:38;;;;;;;3.43;0.97;;;;;;;;;;4801009;28;20246;-74
2021/06/28 03:54:03;;;;;;;4.27;1.10;;;12.50;99.90;;;;;;4802494;28;20192;-73
2021/06/28 03:56:25;;;;;;;4.67;1.23;;;;;;;;;;4801805;28;20769;-73
2021/06/28 03:58:48;;;;;;;2.80;0.83;;;13.40;99.90;;;;;;4802310;28;20261;-75
2021/06/28 04:01:11;;;;;;;3.03;0.90;;;13.40;99.90;;;;;;4800012;28;20200;-75
2021/06/28 04:03:35;;;;;;;2.57;0.73;;;13.70;99.90;;;;;;4801240;28;20860;-74
2021/06/28 04:06:00;;;;;;;3.77;1.00;;;;;;;;;;4800561;28;20764;-73
2021/06/28 04:08:23;;;;;;;5.87;1.57;;;;;;;;;;4801559;28;20243;-74
2021/06/28 04:10:47;;;;;;;3.57;1.00;;;13.80;99.90;;;;;;4801616;28;20606;-77
2021/06/28 04:13:30;;;;;;;5.63;1.70;;;;;;;;;;4796607;28;20211;-78
2021/06/28 04:16:13;;;;;;;3.57;1.00;;;13.60;99.90;;;;;;4799567;28;20176;-83
2021/06/28 04:18:55;;;;;;;2.07;0.60;;;14.10;99.90;;;;;;4782015;29;20193;-82
2021/06/28 04:21:38;;;;;;;4.03;1.00;;;14.70;99.90;;;;;;4783052;29;20185;-79
2021/06/28 04:24:20;;;;;;;3.83;1.13;;;14.20;99.90;;;;;;4782727;29;20555;-84
2021/06/28 04:27:05;;;;;;;3.20;1.00;;;14.60;99.90;;;;;;4782921;29;20185;-75
2021/06/28 04:29:47;;;;;;;3.03;0.90;;;14.70;99.90;;;;;;4782819;29;20196;-82
2021/06/28 04:32:30;;;;;;;6.03;1.63;;;14.50;99.90;;;;;;4782520;29;20686;-80
2021/06/28 04:34:53;;;;;;;2.27;0.73;;;14.80;99.90;;;;;;4782783;28;20333;-84
2021/06/28 04:37:16;;;;;;;3.47;0.97;;;15.30;99.90;;;;;;4782949;28;20193;-80
2021/06/28 04:39:39;;;;;;;2.93;0.90;;;;;;;;;;4782717;28;20615;-83
2021/06/28 04:42:01;;;;;;;2.60;0.80;;;15.40;99.90;;;;;;4782645;29;20228;-85
2021/06/28 04:44:25;;;;;;;6.37;1.60;;;15.30;99.90;;;;;;4799678;28;20200;-75
2021/06/28 04:46:48;;;;;;;2.13;0.60;;;;;;;;;;4800809;28;20258;-76
2021/06/28 04:49:10;;;;;;;2.70;0.80;;;;;;;;;;4801103;28;20247;-74
2021/06/28 04:51:34;;;;;;;1.97;0.63;;;;;;;;;;4800342;28;20204;-78
2021/06/28 04:53:57;;;;;;;3.17;0.93;;;;;;;;;;4801225;28;20216;-82
2021/06/28 04:56:20;;;;;;;6.90;1.80;;;;;;;;;;4801158;28;20250;-79
2021/06/28 04:58:42;;;;;;;3.80;1.00;;;16.30;99.90;;;;;;4801027;28;20195;-83
2021/06/28 05:01:06;;;;;;;3.37;0.93;;;15.70;99.90;;;;;;4798595;28;20200;-81
2021/06/28 05:03:29;;;;;;;5.67;1.40;;;;;;;;;;4817373;28;20187;-83
2021/06/28 05:05:52;;;;;;;3.07;0.87;;;;;;;;;;4818165;28;20246;-79
2021/06/28 05:08:14;;;;;;;1.87;0.60;;;;;;;;;;4819483;28;20191;-80
2021/06/28 05:10:37;;;;;;;3.37;0.93;;;;;;;;;;4819431;28;20203;-82
2021/06/28 05:12:59;;;;;;;3.87;1.00;;;16.50;99.90;;;;;;4808464;28;20267;-82
2021/06/28 05:15:22;;;;;;;5.93;1.60;;;16.70;99.90;;;;;;4819115;28;20208;-81
2021/06/28 05:17:46;;;;;;;2.90;0.83;;;16.70;99.90;;;;;;4819000;28;20187;-77
2021/06/28 05:20:12;;;;;;;2.50;0.70;;;16.80;99.90;;;;;;4802711;28;20698;-74
2021/06/28 05:22:35;;;;;;;3.20;0.90;;;16.40;99.90;;;;;;4795191;28;20231;-76
2021/06/28 05:24:57;;;;;;;1.93;0.60;;;17.20;99.90;;;;;;4781729;29;20188;-75
2021/06/28 05:27:19;;;;;;;4.63;1.23;;;17.60;99.90;;;;;;4781975;29;20193;-81
2021/06/28 05:29:42;;;;;;;2.87;0.80;;;17.00;99.90;;;;;;4799488;28;20208;-83
2021/06/28 05:32:05;;;;;;;3.20;0.90;;;16.90;99.90;;;;;;4819376;28;20250;-82
2021/06/28 05:34:29;;;;;;;6.40;1.60;;;17.30;99.90;;;;;;4818923;28;20230;-80
2021/06/28 05:36:52;;;;;;;4.53;1.20;;;;;;;;;;4819324;28;20249;-82
2021/06/28 05:39:15;;;;;;;2.70;0.80;;;17.20;90.20;;;;;;4819319;28;20183;-82
2021/06/28 05:41:37;;;;;;;1.83;0.50;;;17.90;67.20;;;;;;4818998;28;20656;-82
2021/06/28 05:44:00;;;;;;;3.20;0.90;;;17.60;13.90;;;;;;4819283;28;20199;-78
2021/06/28 05:46:22;;;;;;;5.60;1.33;;;17.60;1.00;;;;;;4819069;28;20248;-81
2021/06/28 05:48:45;;;;;;;3.20;0.83;;;;;;;;;;4819250;28;20187;-78
2021/06/28 05:51:09;;;;;;;3.73;0.93;;;18.00;1.00;;;;;;4818974;28;20384;-83
2021/06/28 05:53:33;;;;;;;4.93;1.23;;;17.90;1.00;;;;;;4818770;28;20290;-81
2021/06/28 05:55:58;;;;;;;2.47;0.73;;;;;;;;;;4804281;28;20666;-74
2021/06/28 05:58:24;;;;;;;5.00;1.20;;;;;;;;;;4798851;28;20253;-75
2021/06/28 06:00:47;;;;;;;18.50;4.50;;;;;;;;;;4797179;28;20208;-75
2021/06/28 06:03:09;;;;;;;3.33;0.80;;;18.60;1.00;;;;;;4799192;28;20236;-72
2021/06/28 06:05:31;;;;;;;6.57;1.73;;;18.00;1.00;;;;;;4799460;28;20192;-75
2021/06/28 06:07:56;;;;;;;3.63;1.00;;;18.70;1.00;;;;;;4799727;28;20709;-73
2021/06/28 06:10:18;;;;;;;3.67;0.97;;;;;;;;;;4799963;28;20252;-73
2021/06/28 06:12:41;;;;;;;3.87;0.90;;;18.60;1.00;;;;;;4799999;28;20724;-74
2021/06/28 06:15:05;;;;;;;3.57;0.97;;;18.70;99.90;;;;;;4799897;28;20221;-73
2021/06/28 06:17:27;;;;;;;6.87;1.57;;;;;;;;;;4799587;28;20198;-73
2021/06/28 06:19:50;;;;;;;2.60;0.70;;;19.20;99.90;;;;;;4798637;28;20259;-73
2021/06/28 06:22:13;;;;;;;2.33;0.70;;;;;;;;;;4799985;28;20243;-73
2021/06/28 06:24:37;;;;;;;1.83;0.53;;;19.80;18.20;;;;;;4799784;28;20223;-72
2021/06/28 06:26:59;;;;;;;2.40;0.63;;;19.60;1.00;;;;;;4799815;28;20714;-73
2021/06/28 06:29:22;;;;;;;6.43;1.50;;;20.30;1.00;;;;;;4799695;28;20248;-72
2021/06/28 06:31:45;;;;;;;3.53;0.90;;;20.00;99.90;;;;;;4799211;28;20195;-74
2021/06/28 06:34:07;;;;;;;2.80;0.70;;;19.60;1.00;;;;;;4799261;28;20258;-79
2021/06/28 06:36:30;;;;;;;6.10;1.53;;;20.30;1.00;;;;;;4799323;28;20667;-75
2021/06/28 06:38:53;;;;;;;3.17;0.80;;;;;;;;;;4790377;28;20255;-74
2021/06/28 06:41:17;;;;;;;2.93;0.80;;;20.50;99.90;;;;;;4780737;29;20615;-73
2021/06/28 06:43:40;;;;;;;4.83;1.17;;;;;;;;;;4780954;28;20177;-73
2021/06/28 06:46:03;;;;;;;4.47;1.10;;;;;;;;;;4780936;29;20243;-73
2021/06/28 06:48:25;;;;;;;7.27;1.70;;;21.20;1.00;;;;;;4780675;29;20239;-75
2021/06/28 06:50:48;;;;;;;3.47;0.90;;;;;;;;;;4779865;28;20203;-73
2021/06/28 06:53:11;;;;;;;3.30;0.83;;;;;;;;;;4779427;29;20228;-74
2021/06/28 06:55:35;;;;;;;5.70;1.40;;;;;;;;;;4780512;29;20184;-74
2021/06/28 06:57:59;;;;;;;2.50;0.70;;;21.20;99.90;;;;;;4791512;28;20242;-76
2021/06/28 07:00:23;;;;;;;7.67;1.83;;;21.30;99.90;;;;;;4792620;28;20285;-77
2021/06/28 07:02:46;;;;;;;4.03;1.03;;;21.90;99.90;;;;;;4787575;28;20227;-72
2021/06/28 07:05:09;;;;;;;2.93;0.80;;;21.20;99.90;;;;;;4799630;28;20223;-74
2021/06/28 07:07:32;;;;;;;7.63;1.80;;;;;;;;;;4797202;28;20266;-73
2021/06/28 07:09:55;;;;;;;2.50;0.70;;;;;;;;;;4798759;28;20264;-72
2021/06/28 07:12:17;;;;;;;2.87;0.70;;;;;;;;;;4800729;28;20654;-73
2021/06/28 07:14:42;;;;;;;5.10;1.23;;;22.30;99.90;;;;;;4784894;28;20224;-80
2021/06/28 07:17:04;;;;;;;5.40;1.30;;;22.80;1.00;;;;;;4802809;28;20192;-74
2021/06/28 07:19:27;;;;;;;5.30;1.27;;;;;;;;;;4816820;28;20284;-73
2021/06/28 07:21:50;;;;;;;4.33;1.00;;;23.50;1.00;;;;;;4796710;28;20562;-81
2021/06/28 07:24:13;;;;;;;5.03;1.27;;;24.30;1.00;;;;;;4793478;28;20274;-75
2021/06/28 07:26:37;;;;;;;6.67;1.57;;;24.20;1.00;;;;;;4812998;28;20251;-75
2021/06/28 07:29:01;;;;;;;3.50;0.90;;;24.90;1.00;;;;;;4783819;28;20206;-73
2021/06/28 07:31:25;;;;;;;8.07;1.83;;;25.10;99.80;;;;;;4782268;29;20191;-73
2021/06/28 07:33:48;;;;;;;5.03;1.17;;;;;;;;;;4793992;28;20284;-75
2021/06/28 07:36:10;;;;;;;5.07;1.17;;;25.50;1.00;;;;;;4800437;28;20254;-72
2021/06/28 07:38:33;;;;;;;7.53;1.73;;;;;;;;;;4800316;28;20266;-73
2021/06/28 07:40:56;;;;;;;3.77;0.93;;;25.10;90.10;;;;;;4816558;28;20715;-74
2021/06/28 07:43:19;;;;;;;3.47;0.90;;;25.20;1.00;;;;;;4799623;28;20205;-74
2021/06/28 07:45:41;;;;;;;2.13;0.57;;;;;;;;;;4801338;28;20725;-74
2021/06/28 07:48:07;;;;;;;7.40;1.67;;;26.40;1.00;;;;;;4800374;28;20204;-74
2021/06/28 07:50:30;;;;;;;9.17;2.10;;;;;;;;;;4788676;28;20209;-72
2021/06/28 07:52:53;;;;;;;4.43;1.10;;;25.50;1.00;;;;;;4792164;28;20234;-74
2021/06/28 07:55:16;;;;;;;4.20;0.97;;;25.90;23.10;;;;;;4788120;28;20216;-73
2021/06/28 07:57:39;;;;;;;3.43;0.87;;;;;;;;;;4781656;29;20608;-74
2021/06/28 08:00:02;;;;;;;4.53;1.03;;;;;;;;;;4783882;28;20242;-78
2021/06/28 08:02:34;;;;;;;7.97;1.90;;;;;;;;;;4792586;28;20284;-73
2021/06/28 08:05:00;;;;;;;3.87;0.90;;;25.60;1.00;;;;;;4799382;28;20243;-79
2021/06/28 08:07:23;;;;;;;6.73;1.50;;;;;;;;;;4801402;28;20186;-83
2021/06/28 08:09:46;;;;;;;4.13;1.03;;;;;;;;;;4801578;28;20185;-81
2021/06/28 08:12:09;;;;;;;3.43;0.87;;;25.50;1.00;;;;;;4801803;28;20207;-80
2021/06/28 08:14:32;;;;;;;6.63;1.53;;;;;;;;;;4805342;28;20210;-76
2021/06/28 08:16:55;;;;;;;5.20;1.23;;;;;;;;;;4800613;28;20243;-76
2021/06/28 08:19:18;;;;;;;3.70;0.90;;;;;;;;;;4801085;28;20185;-81
2021/06/28 08:21:42;;;;;;;4.07;0.87;;;25.40;1.00;;;;;;4800932;28;20222;-81
2021/06/28 08:24:06;;;;;;;5.17;1.13;;;25.50;1.00;;;;;;4800604;28;20211;-78
2021/06/28 08:26:28;;;;;;;9.37;1.93;;;25.80;1.00;;;;;;4799913;28;20260;-83
2021/06/28 08:28:51;;;;;;;4.10;0.90;;;26.40;1.00;;;;;;4801356;28;20233;-82
2021/06/28 08:31:14;;;;;;;5.43;1.17;;;;;;;;;;4801304;28;20191;-81
2021/06/28 08:33:37;;;;;;;5.67;1.27;;;;;;;;;;4783378;28;20223;-80
2021/06/28 08:36:00;;;;;;;3.83;0.87;;;26.30;1.00;;;;;;4799931;28;20439;-78
2021/06/28 08:38:24;;;;;;;6.37;1.37;;;26.70;1.00;;;;;;4799189;28;20681;-80
2021/06/28 08:40:48;;;;;;;2.83;0.67;;;26.80;1.00;;;;;;4799649;28;20215;-83
2021/06/28 08:43:11;;;;;;;3.90;0.90;;;;;;;;;;4800017;28;20322;-81
2021/06/28 08:45:36;;;;;;;6.10;1.37;;;26.90;1.00;;;;;;4799597;28;20239;-79
2021/06/28 08:47:58;;;;;;;2.50;0.70;;;;;;;;;;4815772;28;20233;-79
2021/06/28 08:50:21;;;;;;;7.57;1.60;;;;;;;;;;4800603;28;20662;-77
2021/06/28 08:52:45;;;;;;;5.07;1.07;;;;;;;;;;4799856;28;20215;-78
2021/06/28 08:55:11;;;;;;;5.57;1.17;;;26.60;1.00;;;;;;4782608;28;20274;-78
2021/06/28 08:57:34;;;;;;;12.77;2.17;;;;;;;;;;4798766;28;20673;-75
2021/06/28 08:59:56;;;;;;;6.80;1.13;;;;;;;;;;4784646;28;20252;-78
2021/06/28 09:02:19;;;;;;;6.77;1.10;;;;;;;;;;4790261;28;20239;-77
2021/06/28 09:04:57;;;;;;;4.80;0.80;;;28.10;99.90;;;;;;4796844;28;20674;-77
2021/06/28 09:07:20;;;;;;;9.27;1.40;;;;;;;;;;4773842;28;20248;-76
2021/06/28 09:09:43;;;;;;;7.57;1.17;;;;;;;;;;4782073;29;20242;-77
2021/06/28 09:12:14;;;;;;;7.80;1.10;;;28.60;25.50;;;;;;4780796;29;20219;-79
2021/06/28 09:14:46;;;;;;;16.63;2.30;;;28.90;99.90;;;;;;4780404;29;20752;-77
2021/06/28 09:17:09;;;;;;;8.63;1.23;;;;;;;;;;4780056;28;20744;-75
2021/06/28 09:19:32;;;;;;;20.57;2.67;;;;;;;;;;4779898;28;20859;-78
2021/06/28 09:21:56;;;;;;;10.87;1.53;;;30.60;99.90;;;;;;4790784;28;20186;-80
2021/06/28 09:24:29;;;;;;;8.93;1.20;;;31.30;99.90;;;;;;4788645;28;20187;-80
2021/06/28 09:26:54;;;;;;;10.73;1.40;;;32.40;99.90;;;;;;4820911;28;20195;-79
2021/06/28 09:29:31;;;;;;;10.95;1.45;;;32.90;87.80;;;;;;4774142;28;20192;-74
2021/06/28 09:31:54;;;;;;;12.65;1.70;;;34.90;1.00;;;;;;4799674;28;20195;-75
2021/06/28 09:34:19;;;;;;;12.52;1.70;;;37.10;99.90;;;;;;4799170;28;20208;-76
2021/06/28 09:36:54;;;;;;;9.50;1.67;;;38.80;99.90;;;;;;4800346;28;20187;-74
2021/06/28 09:39:24;;;;;;;17.70;3.00;;;40.80;1.00;;;;;;4791186;28;20188;-74
2021/06/28 09:41:47;;;;;;;9.93;1.45;;;;;;;;;;4796148;28;20223;-75
2021/06/28 09:44:10;;;;;;;10.65;1.38;;;;;;;;;;4780136;29;20232;-75
2021/06/28 09:46:35;;;;;;;19.73;2.47;;;43.40;99.90;;;;;;4763860;29;20376;-73
2021/06/28 09:48:58;;;;;;;7.93;1.23;;;;;;;;;;4781377;29;20196;-74
2021/06/28 09:51:25;;;;;;;9.65;2.35;;;45.20;1.00;;;;;;4779839;29;20204;-78
2021/06/28 09:53:49;;;;;;;18.90;6.75;;;45.40;99.90;;;;;;4779601;29;20209;-76
2021/06/28 09:56:29;;;;;;;13.43;3.97;;;46.40;99.90;;;;;;4779823;29;20212;-74
2021/06/28 09:58:52;;;;;;;17.00;8.75;;;;;;;;;;4779890;29;20208;-78
2021/06/28 10:01:23;;;;;;;32.28;10.38;;;46.60;99.90;;;;;;4781432;28;20231;-78
2021/06/28 10:03:50;;;;;;;22.02;13.10;;;46.70;99.90;;;;;;4806157;28;20216;-76
2021/06/28 10:06:26;;;;;;;33.17;27.88;;;47.10;99.90;;;;;;4799279;28;20274;-76
2021/06/28 10:08:51;;;;;;;42.67;38.83;;;47.60;99.90;;;;;;4800061;28;20223;-75
2021/06/28 10:11:16;;;;;;;49.63;45.42;;;47.70;99.90;;;;;;4798102;28;20195;-74
2021/06/28 10:13:39;;;;;;;32.53;29.92;;;;;;;;;;4799810;28;20184;-74
2021/06/28 10:16:02;;;;;;;30.77;28.38;;;;;;;;;;4799875;28;20195;-78
2021/06/28 10:18:25;;;;;;;49.53;43.83;;;;;;;;;;4798276;28;20231;-75
2021/06/28 10:20:49;;;;;;;32.03;29.15;;;48.20;99.90;;;;;;4799632;28;20183;-75
2021/06/28 10:23:11;;;;;;;47.92;43.03;;;;;;;;;;4799478;28;20257;-74
2021/06/28 10:25:36;;;;;;;26.92;12.75;;;49.90;99.90;;;;;;4798055;28;20218;-75
2021/06/28 10:27:59;;;;;;;19.77;13.75;;;;;;;;;;4814986;28;20846;-74
2021/06/28 10:30:25;;;;;;;19.95;10.98;;;50.30;99.90;;;;;;4816376;28;20202;-73
2021/06/28 10:32:51;;;;;;;23.35;16.80;;;50.70;99.90;;;;;;4818201;28;20186;-74
2021/06/28 10:35:15;;;;;;;23.75;20.65;;;50.90;99.90;;;;;;4818189;28;20210;-74
2021/06/28 10:37:44;;;;;;;15.48;9.48;;;50.80;99.90;;;;;;4817829;28;20187;-74
2021/06/28 10:40:10;;;;;;;23.27;15.00;;;49.20;99.90;;;;;;4800652;28;20190;-74
2021/06/28 10:42:34;;;;;;;30.42;12.02;;;46.70;1.00;;;;;;4814223;28;20313;-73
2021/06/28 10:44:57;;;;;;;21.27;7.88;;;;;;;;;;4797836;28;20192;-74
2021/06/28 10:47:20;;;;;;;28.77;25.75;;;;;;;;;;4797782;28;20207;-74
2021/06/28 10:49:49;;;;;;;20.25;17.77;;;42.90;1.00;;;;;;4782548;29;20209;-73
2021/06/28 10:52:12;;;;;;;70.88;26.70;;;43.60;99.90;;;;;;4781617;29;20208;-75
2021/06/28 10:54:38;;;;;;;31.90;15.52;;;44.80;99.90;;;;;;4781943;29;20636;-74
2021/06/28 10:57:01;;;;;;;14.95;13.40;;;45.90;99.90;;;;;;4790038;28;20207;-76
2021/06/28 10:59:27;;;;;;;43.80;25.00;;;47.00;99.90;;;;;;4800665;28;20187;-75
2021/06/28 11:02:01;;;;;;;30.85;28.13;;;47.60;99.90;;;;;;4791376;28;20224;-75
2021/06/28 11:04:27;;;;;;;69.75;54.22;;;48.50;99.90;;;;;;4762521;29;20196;-73
2021/06/28 11:07:13;;;;;;;67.93;63.10;;;48.90;99.90;;;;;;4782010;29;20271;-74
2021/06/28 11:09:40;;;;;;;54.75;41.90;;;50.00;99.90;;;;;;4797904;28;20587;-74
2021/06/28 11:12:04;;;;;;;39.03;35.50;;;50.50;99.90;;;;;;4783468;28;20239;-73
2021/06/28 11:14:44;;;;;;;35.80;29.00;;;50.90;99.90;;;;;;4800552;28;20195;-74
2021/06/28 11:17:08;;;;;;;25.50;22.48;;;51.20;99.90;;;;;;4802468;28;20303;-73
2021/06/28 11:19:51;;;;;;;39.08;26.60;;;49.50;99.90;;;;;;4793528;28;20246;-74
2021/06/28 11:22:45;;;;;;;18.00;13.93;;;48.40;99.90;;;;;;4799518;28;20195;-74
2021/06/28 11:25:19;;;;;;;18.58;11.68;;;46.60;99.90;;;;;;4759361;28;20661;-74
2021/06/28 11:27:44;;;;;;;19.27;17.63;;;44.70;99.90;;;;;;4800879;28;20195;-74
2021/06/28 11:30:19;;;;;;;46.85;42.45;;;42.80;99.90;;;;;;4793285;28;20188;-73
2021/06/28 11:33:00;;;;;;;191.80;181.43;;;41.30;99.90;;;;;;4793944;28;20188;-75
2021/06/28 11:35:35;;;;;;;117.55;109.20;;;40.80;99.90;;;;;;4776248;28;20259;-72
2021/06/28 11:38:16;;;;;;;45.00;41.53;;;41.40;99.90;;;;;;4776385;28;20196;-72
2021/06/28 11:40:41;;;;;;;40.38;36.72;;;40.40;1.00;;;;;;4800121;28;20211;-74
2021/06/28 11:43:06;;;;;;;75.22;50.38;;;41.40;99.90;;;;;;4783355;28;20314;-73
2021/06/28 11:45:47;;;;;;;65.60;59.28;;;43.00;99.90;;;;;;4800341;28;20192;-73
2021/06/28 11:48:11;;;;;;;74.05;68.38;;;;;;;;;;4799140;28;20207;-73
2021/06/28 11:50:36;;;;;;;98.22;89.53;;;46.50;99.90;;;;;;4788602;28;20220;-74
2021/06/28 11:53:00;;;;;;;124.45;112.65;;;47.80;99.90;;;;;;4799719;28;20220;-74
2021/06/28 11:55:23;;;;;;;128.50;119.00;;;;;;;;;;4832179;28;20191;-73
2021/06/28 11:57:52;;;;;;;144.85;135.00;;;50.00;99.90;;;;;;4797010;28;20196;-75
2021/06/28 12:00:15;;;;;;;179.10;167.93;;;50.80;99.90;;;;;;4799261;28;20203;-74
2021/06/28 12:02:38;;;;;;;359.75;336.45;;;;;;;;;;4788366;28;20591;-75
2021/06/28 12:05:03;;;;;;;484.70;452.88;;;;;;;;;;4781696;29;20595;-74
2021/06/28 12:07:26;;;;;;;526.55;492.35;;;;;;;;;;4781252;29;20239;-74
2021/06/28 12:09:49;;;;;;;516.22;484.17;;;;;;;;;;4782677;29;20725;-73
2021/06/28 12:12:15;;;;;;;481.80;452.95;;;53.40;99.90;;;;;;4782152;28;20254;-75
2021/06/28 12:14:41;;;;;;;486.58;456.48;;;53.70;99.90;;;;;;4782482;29;20189;-75
2021/06/28 12:17:10;;;;;;;482.48;453.73;;;54.10;99.90;;;;;;4783827;28;20215;-74
2021/06/28 12:19:33;;;;;;;481.60;451.38;;;;;;;;;;4782506;28;20242;-75
2021/06/28 12:21:56;;;;;;;489.40;459.50;;;;;;;;;;4781424;29;20204;-73
2021/06/28 12:24:21;;;;;;;455.45;426.88;;;54.20;99.90;;;;;;4782492;29;20191;-74
2021/06/28 12:27:01;;;;;;;425.23;399.35;;;54.10;99.90;;;;;;4780753;29;20223;-76
2021/06/28 12:29:36;;;;;;;360.98;340.00;;;53.80;99.90;;;;;;4764981;29;20208;-74
2021/06/28 12:32:21;;;;;;;495.20;463.33;;;53.70;99.90;;;;;;4796081;28;20191;-74
2021/06/28 12:34:49;;;;;;;507.02;475.23;;;53.70;99.90;;;;;;4800496;28;20249;-75
2021/06/28 12:37:12;;;;;;;400.38;376.20;;;;;;;;;;4815934;28;20194;-74
2021/06/28 12:39:35;;;;;;;359.40;337.63;;;;;;;;;;4815396;28;20218;-73
2021/06/28 12:42:12;;;;;;;375.58;353.45;;;53.80;99.90;;;;;;4799973;28;20234;-72
2021/06/28 12:44:35;;;;;;;313.42;295.77;;;;;;;;;;4787654;28;20245;-74
2021/06/28 12:46:57;;;;;;;265.17;251.23;;;;;;;;;;4819765;28;20257;-74
2021/06/28 12:49:22;;;;;;;287.52;271.48;;;53.50;99.90;;;;;;4803005;28;20255;-73
2021/06/28 12:51:45;;;;;;;289.83;274.08;;;;;;;;;;4793455;28;20673;-72
2021/06/28 12:54:26;;;;;;;263.77;249.38;;;53.20;99.90;;;;;;4797760;28;20191;-72
2021/06/28 12:56:49;;;;;;;234.57;221.77;;;;;;;;;;4815519;28;20218;-74
2021/06/28 12:59:11;;;;;;;284.80;268.20;;;;;;;;;;4800843;28;20246;-71
2021/06/28 13:01:35;;;;;;;202.10;187.73;;;52.80;99.90;;;;;;4792969;28;20290;-71
2021/06/28 13:04:16;;;;;;;170.15;160.45;;;52.00;99.90;;;;;;4782264;29;20192;-74
2021/06/28 13:06:40;;;;;;;159.10;149.57;;;52.00;99.90;;;;;;4800020;28;20206;-71